sensor_id;sensor_type;location;lat;lon;timestamp;temperature;humidity
13229;DHT22;6680;53.220;10.402;2023-08-20T00:02:13;19.60;99.90
13229;DHT22;6680;53.220;10.402;2023-08-20T00:04:43;19.50;99.90
13229;DHT22;6680;53.220;10.402;2023-08-20T00:07:12;19.50;99.90
13229;DHT22;6680;53.220;10.402;2023-08-20T00:09:39;19.40;99.90
13229;DHT22;6680;53.220;10.402;2023-08-20T00:12:07;19.40;99.90
13229;DHT22;6680;53.220;10.402;2023-08-20T00:14:53;19.30;99.90
13229;DHT22;6680;53.220;10.402;2023-08-20T00:17:21;19.30;99.90
13229;DHT22;6680;53.220;10.402;2023-08-20T00:19:50;19.30;99.90
13229;DHT22;6680;53.220;10.402;2023-08-20T00:22:17;19.20;99.90
13229;DHT22;6680;53.220;10.402;2023-08-20T00:24:45;19.10;99.90
13229;DHT22;6680;53.220;10.402;2023-08-20T00:27:13;19.20;99.90
13229;DHT22;6680;53.220;10.402;2023-08-20T00:29:39;19.00;99.90
13229;DHT22;6680;53.220;10.402;2023-08-20T00:32:06;19.00;99.90
13229;DHT22;6680;53.220;10.402;2023-08-20T00:34:33;18.90;99.90
13229;DHT22;6680;53.220;10.402;2023-08-20T00:37:00;18.90;99.90
13229;DHT22;6680;53.220;10.402;2023-08-20T00:39:26;18.90;99.90
13229;DHT22;6680;53.220;10.402;2023-08-20T00:41:53;19.00;99.90
13229;DHT22;6680;53.220;10.402;2023-08-20T00:44:21;19.00;99.90
13229;DHT22;6680;53.220;10.402;2023-08-20T00:46:48;19.10;99.90
13229;DHT22;6680;53.220;10.402;2023-08-20T00:49:16;19.10;99.90
13229;DHT22;6680;53.220;10.402;2023-08-20T00:51:43;19.40;99.90
13229;DHT22;6680;53.220;10.402;2023-08-20T00:54:11;19.10;99.90
13229;DHT22;6680;53.220;10.402;2023-08-20T00:56:38;19.10;99.90
13229;DHT22;6680;53.220;10.402;2023-08-20T00:59:05;19.10;99.90
13229;DHT22;6680;53.220;10.402;2023-08-20T01:01:34;19.10;99.90
13229;DHT22;6680;53.220;10.402;2023-08-20T01:04:00;19.20;99.90
13229;DHT22;6680;53.220;10.402;2023-08-20T01:06:32;19.20;99.90
13229;DHT22;6680;53.220;10.402;2023-08-20T01:09:07;19.10;99.90
13229;DHT22;6680;53.220;10.402;2023-08-20T01:11:39;19.10;99.90
13229;DHT22;6680;53.220;10.402;2023-08-20T01:14:14;18.90;99.90
13229;DHT22;6680;53.220;10.402;2023-08-20T01:16:42;18.90;99.90
13229;DHT22;6680;53.220;10.402;2023-08-20T01:19:11;18.70;99.90
13229;DHT22;6680;53.220;10.402;2023-08-20T01:21:47;18.80;99.90
13229;DHT22;6680;53.220;10.402;2023-08-20T01:24:32;18.70;99.90
13229;DHT22;6680;53.220;10.402;2023-08-20T01:27:16;18.60;99.90
13229;DHT22;6680;53.220;10.402;2023-08-20T01:29:47;18.60;99.90
13229;DHT22;6680;53.220;10.402;2023-08-20T01:32:14;18.50;99.90
13229;DHT22;6680;53.220;10.402;2023-08-20T01:34:42;18.50;99.90
13229;DHT22;6680;53.220;10.402;2023-08-20T01:37:08;18.40;99.90
13229;DHT22;6680;53.220;10.402;2023-08-20T01:39:36;18.40;99.90
13229;DHT22;6680;53.220;10.402;2023-08-20T01:42:03;18.30;99.90
13229;DHT22;6680;53.220;10.402;2023-08-20T01:44:30;18.20;99.90
13229;DHT22;6680;53.220;10.402;2023-08-20T01:46:58;18.20;99.90
13229;DHT22;6680;53.220;10.402;2023-08-20T01:49:24;18.10;99.90
13229;DHT22;6680;53.220;10.402;2023-08-20T01:51:51;18.10;99.90
13229;DHT22;6680;53.220;10.402;2023-08-20T01:54:17;18.00;99.90
13229;DHT22;6680;53.220;10.402;2023-08-20T01:56:44;18.00;99.90
13229;DHT22;6680;53.220;10.402;2023-08-20T01:59:12;17.90;99.90
13229;DHT22;6680;53.220;10.402;2023-08-20T02:01:38;17.90;99.90
13229;DHT22;6680;53.220;10.402;2023-08-20T02:04:06;17.80;99.90
13229;DHT22;6680;53.220;10.402;2023-08-20T02:06:34;17.80;99.90
13229;DHT22;6680;53.220;10.402;2023-08-20T02:09:01;17.90;99.90
13229;DHT22;6680;53.220;10.402;2023-08-20T02:11:28;17.80;99.90
13229;DHT22;6680;53.220;10.402;2023-08-20T02:13:55;17.80;99.90
13229;DHT22;6680;53.220;10.402;2023-08-20T02:16:21;17.80;99.90
13229;DHT22;6680;53.220;10.402;2023-08-20T02:18:48;17.80;99.90
13229;DHT22;6680;53.220;10.402;2023-08-20T02:21:16;17.90;99.90
13229;DHT22;6680;53.220;10.402;2023-08-20T02:23:43;17.90;99.90
13229;DHT22;6680;53.220;10.402;2023-08-20T02:26:09;18.00;99.90
13229;DHT22;6680;53.220;10.402;2023-08-20T02:28:36;18.00;99.90
13229;DHT22;6680;53.220;10.402;2023-08-20T02:31:04;18.00;99.90
13229;DHT22;6680;53.220;10.402;2023-08-20T02:33:31;18.00;99.90
13229;DHT22;6680;53.220;10.402;2023-08-20T02:36:01;18.00;99.90
13229;DHT22;6680;53.220;10.402;2023-08-20T02:38:29;18.00;99.90
13229;DHT22;6680;53.220;10.402;2023-08-20T02:40:55;17.90;99.90
13229;DHT22;6680;53.220;10.402;2023-08-20T02:43:22;17.90;99.90
13229;DHT22;6680;53.220;10.402;2023-08-20T02:45:49;18.00;99.90
13229;DHT22;6680;53.220;10.402;2023-08-20T02:48:17;18.00;99.90
13229;DHT22;6680;53.220;10.402;2023-08-20T02:50:44;18.10;99.90
13229;DHT22;6680;53.220;10.402;2023-08-20T02:53:10;18.10;99.90
13229;DHT22;6680;53.220;10.402;2023-08-20T02:55:38;18.20;99.90
13229;DHT22;6680;53.220;10.402;2023-08-20T02:58:05;18.20;99.90
13229;DHT22;6680;53.220;10.402;2023-08-20T03:00:33;18.30;99.90
13229;DHT22;6680;53.220;10.402;2023-08-20T03:03:00;18.30;99.90
13229;DHT22;6680;53.220;10.402;2023-08-20T03:05:28;18.30;99.90
13229;DHT22;6680;53.220;10.402;2023-08-20T03:07:54;18.40;99.90
13229;DHT22;6680;53.220;10.402;2023-08-20T03:10:21;18.40;99.90
13229;DHT22;6680;53.220;10.402;2023-08-20T03:12:49;18.40;99.90
13229;DHT22;6680;53.220;10.402;2023-08-20T03:15:16;18.40;99.90
13229;DHT22;6680;53.220;10.402;2023-08-20T03:17:42;18.30;99.90
13229;DHT22;6680;53.220;10.402;2023-08-20T03:20:10;18.20;99.90
13229;DHT22;6680;53.220;10.402;2023-08-20T03:22:37;18.10;99.90
13229;DHT22;6680;53.220;10.402;2023-08-20T03:25:05;18.10;99.90
13229;DHT22;6680;53.220;10.402;2023-08-20T03:27:32;18.00;99.90
13229;DHT22;6680;53.220;10.402;2023-08-20T03:30:00;18.00;99.90
13229;DHT22;6680;53.220;10.402;2023-08-20T03:32:27;17.90;99.90
13229;DHT22;6680;53.220;10.402;2023-08-20T03:34:53;17.80;99.90
13229;DHT22;6680;53.220;10.402;2023-08-20T03:37:21;17.80;99.90
13229;DHT22;6680;53.220;10.402;2023-08-20T03:39:48;17.70;99.90
13229;DHT22;6680;53.220;10.402;2023-08-20T03:42:14;17.70;99.90
13229;DHT22;6680;53.220;10.402;2023-08-20T03:44:41;17.70;99.90
13229;DHT22;6680;53.220;10.402;2023-08-20T03:47:09;17.70;99.90
13229;DHT22;6680;53.220;10.402;2023-08-20T03:49:36;17.70;99.90
13229;DHT22;6680;53.220;10.402;2023-08-20T03:52:03;17.70;99.90
13229;DHT22;6680;53.220;10.402;2023-08-20T03:54:30;17.70;99.90
13229;DHT22;6680;53.220;10.402;2023-08-20T03:56:56;17.70;99.90
13229;DHT22;6680;53.220;10.402;2023-08-20T03:59:23;17.60;99.90
13229;DHT22;6680;53.220;10.402;2023-08-20T04:01:50;17.60;99.90
13229;DHT22;6680;53.220;10.402;2023-08-20T04:04:18;17.60;99.90
13229;DHT22;6680;53.220;10.402;2023-08-20T04:06:46;17.60;99.90
13229;DHT22;6680;53.220;10.402;2023-08-20T04:09:13;17.50;99.90
13229;DHT22;6680;53.220;10.402;2023-08-20T04:11:39;17.50;99.90
13229;DHT22;6680;53.220;10.402;2023-08-20T04:14:06;17.20;99.90
13229;DHT22;6680;53.220;10.402;2023-08-20T04:16:32;17.40;99.90
13229;DHT22;6680;53.220;10.402;2023-08-20T04:18:59;17.30;99.90
13229;DHT22;6680;53.220;10.402;2023-08-20T04:21:27;17.30;99.90
13229;DHT22;6680;53.220;10.402;2023-08-20T04:23:54;17.30;99.90
13229;DHT22;6680;53.220;10.402;2023-08-20T04:26:20;17.30;99.90
13229;DHT22;6680;53.220;10.402;2023-08-20T04:28:47;17.30;99.90
13229;DHT22;6680;53.220;10.402;2023-08-20T04:31:14;17.30;99.90
13229;DHT22;6680;53.220;10.402;2023-08-20T04:33:40;17.30;99.90
13229;DHT22;6680;53.220;10.402;2023-08-20T04:36:07;17.30;99.90
13229;DHT22;6680;53.220;10.402;2023-08-20T04:38:35;17.30;99.90
13229;DHT22;6680;53.220;10.402;2023-08-20T04:41:01;17.50;99.90
13229;DHT22;6680;53.220;10.402;2023-08-20T04:43:28;17.30;99.90
13229;DHT22;6680;53.220;10.402;2023-08-20T04:45:55;17.30;99.90
13229;DHT22;6680;53.220;10.402;2023-08-20T04:48:21;17.30;99.90
13229;DHT22;6680;53.220;10.402;2023-08-20T04:50:48;17.30;99.90
13229;DHT22;6680;53.220;10.402;2023-08-20T04:53:14;17.40;99.90
13229;DHT22;6680;53.220;10.402;2023-08-20T04:55:42;17.40;99.90
13229;DHT22;6680;53.220;10.402;2023-08-20T04:58:09;17.50;99.90
13229;DHT22;6680;53.220;10.402;2023-08-20T05:00:36;17.60;99.90
13229;DHT22;6680;53.220;10.402;2023-08-20T05:03:03;17.60;99.90
13229;DHT22;6680;53.220;10.402;2023-08-20T05:05:29;17.70;99.90
13229;DHT22;6680;53.220;10.402;2023-08-20T05:07:56;17.70;99.90
13229;DHT22;6680;53.220;10.402;2023-08-20T05:10:22;17.80;99.90
13229;DHT22;6680;53.220;10.402;2023-08-20T05:12:50;17.90;99.90
13229;DHT22;6680;53.220;10.402;2023-08-20T05:15:17;18.00;99.90
13229;DHT22;6680;53.220;10.402;2023-08-20T05:17:44;18.10;99.90
13229;DHT22;6680;53.220;10.402;2023-08-20T05:20:11;18.10;99.90
13229;DHT22;6680;53.220;10.402;2023-08-20T05:22:37;18.20;99.90
13229;DHT22;6680;53.220;10.402;2023-08-20T05:25:05;18.20;99.90
13229;DHT22;6680;53.220;10.402;2023-08-20T05:27:32;18.20;99.90
13229;DHT22;6680;53.220;10.402;2023-08-20T05:29:59;18.20;99.90
13229;DHT22;6680;53.220;10.402;2023-08-20T05:32:26;18.20;99.90
13229;DHT22;6680;53.220;10.402;2023-08-20T05:34:53;18.20;99.90
13229;DHT22;6680;53.220;10.402;2023-08-20T05:37:19;18.30;99.90
13229;DHT22;6680;53.220;10.402;2023-08-20T05:39:46;18.30;99.90
13229;DHT22;6680;53.220;10.402;2023-08-20T05:42:13;18.50;99.90
13229;DHT22;6680;53.220;10.402;2023-08-20T05:44:39;18.60;99.90
13229;DHT22;6680;53.220;10.402;2023-08-20T05:47:07;18.70;99.90
13229;DHT22;6680;53.220;10.402;2023-08-20T05:49:34;19.10;99.90
13229;DHT22;6680;53.220;10.402;2023-08-20T05:52:01;19.70;99.90
13229;DHT22;6680;53.220;10.402;2023-08-20T05:54:28;20.40;99.90
13229;DHT22;6680;53.220;10.402;2023-08-20T05:56:54;21.00;99.90
13229;DHT22;6680;53.220;10.402;2023-08-20T05:59:21;21.50;99.90
13229;DHT22;6680;53.220;10.402;2023-08-20T06:01:48;22.00;99.90
13229;DHT22;6680;53.220;10.402;2023-08-20T06:04:16;22.30;99.90
13229;DHT22;6680;53.220;10.402;2023-08-20T06:06:43;22.30;99.90
13229;DHT22;6680;53.220;10.402;2023-08-20T06:09:10;22.00;99.90
13229;DHT22;6680;53.220;10.402;2023-08-20T06:14:04;21.30;99.90
13229;DHT22;6680;53.220;10.402;2023-08-20T06:16:30;21.00;99.90
13229;DHT22;6680;53.220;10.402;2023-08-20T06:18:57;20.80;99.90
13229;DHT22;6680;53.220;10.402;2023-08-20T06:21:25;20.50;99.90
13229;DHT22;6680;53.220;10.402;2023-08-20T06:23:52;20.50;99.90
13229;DHT22;6680;53.220;10.402;2023-08-20T06:26:18;20.10;99.90
13229;DHT22;6680;53.220;10.402;2023-08-20T06:31:12;20.00;99.90
13229;DHT22;6680;53.220;10.402;2023-08-20T06:33:39;20.10;99.90
13229;DHT22;6680;53.220;10.402;2023-08-20T06:36:06;20.00;99.90
13229;DHT22;6680;53.220;10.402;2023-08-20T06:38:34;20.10;99.90
13229;DHT22;6680;53.220;10.402;2023-08-20T06:41:00;20.10;99.90
13229;DHT22;6680;53.220;10.402;2023-08-20T06:43:27;20.10;99.90
13229;DHT22;6680;53.220;10.402;2023-08-20T06:48:21;20.10;99.90
13229;DHT22;6680;53.220;10.402;2023-08-20T06:50:50;20.10;99.90
13229;DHT22;6680;53.220;10.402;2023-08-20T06:53:16;20.20;99.90
13229;DHT22;6680;53.220;10.402;2023-08-20T06:55:44;20.30;99.90
13229;DHT22;6680;53.220;10.402;2023-08-20T06:58:11;20.40;99.90
13229;DHT22;6680;53.220;10.402;2023-08-20T07:00:38;20.40;99.90
13229;DHT22;6680;53.220;10.402;2023-08-20T07:03:04;20.50;99.90
13229;DHT22;6680;53.220;10.402;2023-08-20T07:05:31;20.50;99.90
13229;DHT22;6680;53.220;10.402;2023-08-20T07:07:58;20.50;99.90
13229;DHT22;6680;53.220;10.402;2023-08-20T07:10:24;20.50;99.90
13229;DHT22;6680;53.220;10.402;2023-08-20T07:12:52;20.60;99.90
13229;DHT22;6680;53.220;10.402;2023-08-20T07:15:19;20.60;99.90
13229;DHT22;6680;53.220;10.402;2023-08-20T07:17:45;20.70;99.90
13229;DHT22;6680;53.220;10.402;2023-08-20T07:20:13;20.80;99.90
13229;DHT22;6680;53.220;10.402;2023-08-20T07:22:39;20.90;99.90
13229;DHT22;6680;53.220;10.402;2023-08-20T07:25:07;21.00;99.90
13229;DHT22;6680;53.220;10.402;2023-08-20T07:27:34;21.00;99.90
13229;DHT22;6680;53.220;10.402;2023-08-20T07:30:02;21.00;99.90
13229;DHT22;6680;53.220;10.402;2023-08-20T07:32:29;21.00;99.90
13229;DHT22;6680;53.220;10.402;2023-08-20T07:34:57;21.10;99.90
13229;DHT22;6680;53.220;10.402;2023-08-20T07:37:23;21.20;99.90
13229;DHT22;6680;53.220;10.402;2023-08-20T07:39:50;21.20;99.90
13229;DHT22;6680;53.220;10.402;2023-08-20T07:42:16;21.30;99.90
13229;DHT22;6680;53.220;10.402;2023-08-20T07:44:44;21.40;99.90
13229;DHT22;6680;53.220;10.402;2023-08-20T07:47:12;21.40;99.90
13229;DHT22;6680;53.220;10.402;2023-08-20T07:49:38;21.40;99.90
13229;DHT22;6680;53.220;10.402;2023-08-20T07:52:05;21.50;99.90
13229;DHT22;6680;53.220;10.402;2023-08-20T07:54:32;21.50;99.90
13229;DHT22;6680;53.220;10.402;2023-08-20T07:59:25;21.70;99.90
13229;DHT22;6680;53.220;10.402;2023-08-20T08:01:52;21.80;99.90
13229;DHT22;6680;53.220;10.402;2023-08-20T08:04:20;21.90;99.90
13229;DHT22;6680;53.220;10.402;2023-08-20T08:06:47;21.90;99.90
13229;DHT22;6680;53.220;10.402;2023-08-20T08:09:21;22.00;99.90
13229;DHT22;6680;53.220;10.402;2023-08-20T08:11:48;22.00;99.90
13229;DHT22;6680;53.220;10.402;2023-08-20T08:14:15;22.00;99.90
13229;DHT22;6680;53.220;10.402;2023-08-20T08:16:42;22.00;99.90
13229;DHT22;6680;53.220;10.402;2023-08-20T08:21:37;22.10;99.90
13229;DHT22;6680;53.220;10.402;2023-08-20T08:24:04;22.20;99.90
13229;DHT22;6680;53.220;10.402;2023-08-20T08:26:33;22.40;99.90
13229;DHT22;6680;53.220;10.402;2023-08-20T08:29:00;22.40;99.90
13229;DHT22;6680;53.220;10.402;2023-08-20T08:33:53;22.40;99.90
13229;DHT22;6680;53.220;10.402;2023-08-20T08:36:20;22.50;99.90
13229;DHT22;6680;53.220;10.402;2023-08-20T08:38:48;22.50;99.90
13229;DHT22;6680;53.220;10.402;2023-08-20T08:41:15;22.60;99.90
13229;DHT22;6680;53.220;10.402;2023-08-20T08:43:41;22.60;99.90
13229;DHT22;6680;53.220;10.402;2023-08-20T08:46:12;22.60;99.90
13229;DHT22;6680;53.220;10.402;2023-08-20T08:48:40;22.60;99.90
13229;DHT22;6680;53.220;10.402;2023-08-20T08:51:07;22.70;99.90
13229;DHT22;6680;53.220;10.402;2023-08-20T08:53:35;22.70;99.90
13229;DHT22;6680;53.220;10.402;2023-08-20T08:56:03;22.60;99.90
13229;DHT22;6680;53.220;10.402;2023-08-20T08:58:31;22.70;99.90
13229;DHT22;6680;53.220;10.402;2023-08-20T09:03:25;23.40;99.90
13229;DHT22;6680;53.220;10.402;2023-08-20T09:05:55;22.80;99.90
13229;DHT22;6680;53.220;10.402;2023-08-20T09:08:22;22.90;99.90
13229;DHT22;6680;53.220;10.402;2023-08-20T09:10:55;23.00;99.90
13229;DHT22;6680;53.220;10.402;2023-08-20T09:13:32;23.00;99.90
13229;DHT22;6680;53.220;10.402;2023-08-20T09:15:59;23.00;99.90
13229;DHT22;6680;53.220;10.402;2023-08-20T09:18:29;23.00;99.90
13229;DHT22;6680;53.220;10.402;2023-08-20T09:20:57;23.00;99.90
13229;DHT22;6680;53.220;10.402;2023-08-20T09:23:28;23.20;99.90
13229;DHT22;6680;53.220;10.402;2023-08-20T09:25:55;22.90;99.90
13229;DHT22;6680;53.220;10.402;2023-08-20T09:28:21;23.20;99.90
13229;DHT22;6680;53.220;10.402;2023-08-20T09:30:56;23.20;99.90
13229;DHT22;6680;53.220;10.402;2023-08-20T09:33:23;23.20;99.90
13229;DHT22;6680;53.220;10.402;2023-08-20T09:35:50;23.30;99.90
13229;DHT22;6680;53.220;10.402;2023-08-20T09:38:19;23.30;99.90
13229;DHT22;6680;53.220;10.402;2023-08-20T09:40:49;23.50;99.90
13229;DHT22;6680;53.220;10.402;2023-08-20T09:43:16;23.40;99.90
13229;DHT22;6680;53.220;10.402;2023-08-20T09:45:43;23.50;99.90
13229;DHT22;6680;53.220;10.402;2023-08-20T09:48:17;23.50;99.90
13229;DHT22;6680;53.220;10.402;2023-08-20T09:50:46;23.50;99.90
13229;DHT22;6680;53.220;10.402;2023-08-20T09:53:21;23.50;99.90
13229;DHT22;6680;53.220;10.402;2023-08-20T09:55:50;23.70;99.90
13229;DHT22;6680;53.220;10.402;2023-08-20T09:58:18;23.60;99.90
13229;DHT22;6680;53.220;10.402;2023-08-20T10:00:50;23.70;99.90
13229;DHT22;6680;53.220;10.402;2023-08-20T10:03:20;23.80;99.90
13229;DHT22;6680;53.220;10.402;2023-08-20T10:05:48;23.70;99.90
13229;DHT22;6680;53.220;10.402;2023-08-20T10:08:15;23.80;99.90
13229;DHT22;6680;53.220;10.402;2023-08-20T10:10:43;23.90;99.90
13229;DHT22;6680;53.220;10.402;2023-08-20T10:13:10;23.90;99.90
13229;DHT22;6680;53.220;10.402;2023-08-20T10:15:39;24.00;99.90
13229;DHT22;6680;53.220;10.402;2023-08-20T10:18:07;24.10;99.90
13229;DHT22;6680;53.220;10.402;2023-08-20T10:20:38;24.10;99.90
13229;DHT22;6680;53.220;10.402;2023-08-20T10:23:04;24.10;99.90
13229;DHT22;6680;53.220;10.402;2023-08-20T10:25:40;24.10;99.90
13229;DHT22;6680;53.220;10.402;2023-08-20T10:28:12;24.20;99.90
13229;DHT22;6680;53.220;10.402;2023-08-20T10:31:02;24.20;99.90
13229;DHT22;6680;53.220;10.402;2023-08-20T10:33:29;24.20;99.90
13229;DHT22;6680;53.220;10.402;2023-08-20T10:35:57;24.20;99.90
13229;DHT22;6680;53.220;10.402;2023-08-20T10:38:35;24.20;99.90
13229;DHT22;6680;53.220;10.402;2023-08-20T10:41:06;24.40;99.90
13229;DHT22;6680;53.220;10.402;2023-08-20T10:43:34;24.30;99.90
13229;DHT22;6680;53.220;10.402;2023-08-20T10:46:06;24.50;99.90
13229;DHT22;6680;53.220;10.402;2023-08-20T10:48:33;24.50;99.90
13229;DHT22;6680;53.220;10.402;2023-08-20T10:51:11;24.60;99.90
13229;DHT22;6680;53.220;10.402;2023-08-20T10:53:39;24.70;99.90
13229;DHT22;6680;53.220;10.402;2023-08-20T10:56:13;24.70;99.90
13229;DHT22;6680;53.220;10.402;2023-08-20T10:58:45;24.70;99.90
13229;DHT22;6680;53.220;10.402;2023-08-20T11:01:19;24.90;99.90
13229;DHT22;6680;53.220;10.402;2023-08-20T11:03:48;24.90;99.90
13229;DHT22;6680;53.220;10.402;2023-08-20T11:06:16;24.90;99.90
13229;DHT22;6680;53.220;10.402;2023-08-20T11:08:44;24.80;99.90
13229;DHT22;6680;53.220;10.402;2023-08-20T11:11:11;24.90;99.90
13229;DHT22;6680;53.220;10.402;2023-08-20T11:13:38;24.90;99.90
13229;DHT22;6680;53.220;10.402;2023-08-20T11:16:06;25.00;99.90
13229;DHT22;6680;53.220;10.402;2023-08-20T11:18:34;24.90;99.90
13229;DHT22;6680;53.220;10.402;2023-08-20T11:21:01;25.10;99.90
13229;DHT22;6680;53.220;10.402;2023-08-20T11:23:29;25.30;99.90
13229;DHT22;6680;53.220;10.402;2023-08-20T11:25:57;25.30;99.90
13229;DHT22;6680;53.220;10.402;2023-08-20T11:28:25;25.30;99.90
13229;DHT22;6680;53.220;10.402;2023-08-20T11:30:53;25.30;99.90
13229;DHT22;6680;53.220;10.402;2023-08-20T11:33:21;25.30;99.90
13229;DHT22;6680;53.220;10.402;2023-08-20T11:35:48;25.30;99.90
13229;DHT22;6680;53.220;10.402;2023-08-20T11:38:15;25.20;99.90
13229;DHT22;6680;53.220;10.402;2023-08-20T11:40:42;25.30;99.90
13229;DHT22;6680;53.220;10.402;2023-08-20T11:43:10;25.30;99.90
13229;DHT22;6680;53.220;10.402;2023-08-20T11:45:44;25.40;99.90
13229;DHT22;6680;53.220;10.402;2023-08-20T11:48:11;25.50;99.90
13229;DHT22;6680;53.220;10.402;2023-08-20T11:50:38;25.40;99.90
13229;DHT22;6680;53.220;10.402;2023-08-20T11:53:06;25.50;99.90
13229;DHT22;6680;53.220;10.402;2023-08-20T11:55:33;25.40;99.90
13229;DHT22;6680;53.220;10.402;2023-08-20T11:58:01;25.40;99.90
13229;DHT22;6680;53.220;10.402;2023-08-20T12:00:29;25.30;99.90
13229;DHT22;6680;53.220;10.402;2023-08-20T12:02:57;25.40;99.90
13229;DHT22;6680;53.220;10.402;2023-08-20T12:05:26;25.50;99.90
13229;DHT22;6680;53.220;10.402;2023-08-20T12:07:57;25.50;99.90
13229;DHT22;6680;53.220;10.402;2023-08-20T12:10:24;25.60;99.90
13229;DHT22;6680;53.220;10.402;2023-08-20T12:12:51;25.70;99.90
13229;DHT22;6680;53.220;10.402;2023-08-20T12:15:20;25.80;99.90
13229;DHT22;6680;53.220;10.402;2023-08-20T12:17:57;26.00;99.90
13229;DHT22;6680;53.220;10.402;2023-08-20T12:20:27;26.00;99.90
13229;DHT22;6680;53.220;10.402;2023-08-20T12:22:53;26.10;99.90
13229;DHT22;6680;53.220;10.402;2023-08-20T12:25:20;26.10;99.90
13229;DHT22;6680;53.220;10.402;2023-08-20T12:27:47;26.00;99.90
13229;DHT22;6680;53.220;10.402;2023-08-20T12:30:13;25.90;99.90
13229;DHT22;6680;53.220;10.402;2023-08-20T12:32:41;25.90;99.90
13229;DHT22;6680;53.220;10.402;2023-08-20T12:35:08;25.90;99.90
13229;DHT22;6680;53.220;10.402;2023-08-20T12:37:35;26.00;99.90
13229;DHT22;6680;53.220;10.402;2023-08-20T12:40:02;26.00;99.90
13229;DHT22;6680;53.220;10.402;2023-08-20T12:42:33;26.00;99.90
13229;DHT22;6680;53.220;10.402;2023-08-20T12:45:00;26.10;99.90
13229;DHT22;6680;53.220;10.402;2023-08-20T12:47:26;26.20;99.90
13229;DHT22;6680;53.220;10.402;2023-08-20T12:49:54;26.10;99.90
13229;DHT22;6680;53.220;10.402;2023-08-20T12:52:21;26.20;99.90
13229;DHT22;6680;53.220;10.402;2023-08-20T12:54:48;26.20;99.90
13229;DHT22;6680;53.220;10.402;2023-08-20T12:59:41;26.10;99.90
13229;DHT22;6680;53.220;10.402;2023-08-20T13:02:08;26.00;99.90
13229;DHT22;6680;53.220;10.402;2023-08-20T13:04:35;26.00;99.90
13229;DHT22;6680;53.220;10.402;2023-08-20T13:07:04;26.10;99.90
13229;DHT22;6680;53.220;10.402;2023-08-20T13:09:31;26.10;99.90
13229;DHT22;6680;53.220;10.402;2023-08-20T13:12:00;26.10;99.90
13229;DHT22;6680;53.220;10.402;2023-08-20T13:14:29;26.00;99.90
13229;DHT22;6680;53.220;10.402;2023-08-20T13:16:56;25.90;99.90
13229;DHT22;6680;53.220;10.402;2023-08-20T13:19:23;25.90;99.90
13229;DHT22;6680;53.220;10.402;2023-08-20T13:21:50;25.90;99.90
13229;DHT22;6680;53.220;10.402;2023-08-20T13:24:18;25.80;99.90
13229;DHT22;6680;53.220;10.402;2023-08-20T13:26:44;25.80;99.90
13229;DHT22;6680;53.220;10.402;2023-08-20T13:29:11;25.80;99.90
13229;DHT22;6680;53.220;10.402;2023-08-20T13:31:38;25.90;99.90
13229;DHT22;6680;53.220;10.402;2023-08-20T13:34:04;25.90;99.90
13229;DHT22;6680;53.220;10.402;2023-08-20T13:36:31;25.90;99.90
13229;DHT22;6680;53.220;10.402;2023-08-20T13:38:57;25.90;99.90
13229;DHT22;6680;53.220;10.402;2023-08-20T13:41:26;26.00;99.90
13229;DHT22;6680;53.220;10.402;2023-08-20T13:43:52;26.10;99.90
13229;DHT22;6680;53.220;10.402;2023-08-20T13:46:19;26.20;99.90
13229;DHT22;6680;53.220;10.402;2023-08-20T13:48:46;26.30;99.90
13229;DHT22;6680;53.220;10.402;2023-08-20T13:51:13;26.50;99.90
13229;DHT22;6680;53.220;10.402;2023-08-20T13:53:40;26.50;99.90
13229;DHT22;6680;53.220;10.402;2023-08-20T13:58:35;26.70;99.90
13229;DHT22;6680;53.220;10.402;2023-08-20T14:01:01;26.80;99.90
13229;DHT22;6680;53.220;10.402;2023-08-20T14:03:28;26.80;99.90
13229;DHT22;6680;53.220;10.402;2023-08-20T14:05:55;26.80;99.90
13229;DHT22;6680;53.220;10.402;2023-08-20T14:08:21;26.80;99.90
13229;DHT22;6680;53.220;10.402;2023-08-20T14:10:48;26.80;99.90
13229;DHT22;6680;53.220;10.402;2023-08-20T14:13:15;26.90;99.90
13229;DHT22;6680;53.220;10.402;2023-08-20T14:15:43;26.90;99.90
13229;DHT22;6680;53.220;10.402;2023-08-20T14:18:09;26.90;99.90
13229;DHT22;6680;53.220;10.402;2023-08-20T14:20:36;26.80;99.90
13229;DHT22;6680;53.220;10.402;2023-08-20T14:23:03;26.80;99.90
13229;DHT22;6680;53.220;10.402;2023-08-20T14:25:30;26.80;99.90
13229;DHT22;6680;53.220;10.402;2023-08-20T14:27:56;26.80;99.90
13229;DHT22;6680;53.220;10.402;2023-08-20T14:32:52;26.80;99.90
13229;DHT22;6680;53.220;10.402;2023-08-20T14:35:19;26.70;99.90
13229;DHT22;6680;53.220;10.402;2023-08-20T14:37:45;26.70;99.90
13229;DHT22;6680;53.220;10.402;2023-08-20T14:40:12;26.60;99.90
13229;DHT22;6680;53.220;10.402;2023-08-20T14:42:39;26.60;99.90
13229;DHT22;6680;53.220;10.402;2023-08-20T14:45:07;26.60;99.90
13229;DHT22;6680;53.220;10.402;2023-08-20T14:47:34;26.50;99.90
13229;DHT22;6680;53.220;10.402;2023-08-20T14:50:02;26.60;99.90
13229;DHT22;6680;53.220;10.402;2023-08-20T14:54:58;26.70;99.90
13229;DHT22;6680;53.220;10.402;2023-08-20T14:57:24;26.70;99.90
13229;DHT22;6680;53.220;10.402;2023-08-20T14:59:51;26.70;99.90
13229;DHT22;6680;53.220;10.402;2023-08-20T15:02:18;26.70;99.90
13229;DHT22;6680;53.220;10.402;2023-08-20T15:04:44;26.60;99.90
13229;DHT22;6680;53.220;10.402;2023-08-20T15:07:12;26.70;99.90
13229;DHT22;6680;53.220;10.402;2023-08-20T15:09:39;26.70;99.90
13229;DHT22;6680;53.220;10.402;2023-08-20T15:12:06;26.70;99.90
13229;DHT22;6680;53.220;10.402;2023-08-20T15:14:33;26.70;99.90
13229;DHT22;6680;53.220;10.402;2023-08-20T15:17:00;26.50;99.90
13229;DHT22;6680;53.220;10.402;2023-08-20T15:19:26;26.50;99.90
13229;DHT22;6680;53.220;10.402;2023-08-20T15:21:53;26.40;99.90
13229;DHT22;6680;53.220;10.402;2023-08-20T15:24:21;26.30;99.90
13229;DHT22;6680;53.220;10.402;2023-08-20T15:26:47;26.30;99.90
13229;DHT22;6680;53.220;10.402;2023-08-20T15:29:14;26.10;99.90
13229;DHT22;6680;53.220;10.402;2023-08-20T15:31:40;26.10;99.90
13229;DHT22;6680;53.220;10.402;2023-08-20T15:34:07;26.00;99.90
13229;DHT22;6680;53.220;10.402;2023-08-20T15:36:34;26.00;99.90
13229;DHT22;6680;53.220;10.402;2023-08-20T15:39:01;26.10;99.90
13229;DHT22;6680;53.220;10.402;2023-08-20T15:41:29;26.10;99.90
13229;DHT22;6680;53.220;10.402;2023-08-20T15:43:56;26.10;99.90
13229;DHT22;6680;53.220;10.402;2023-08-20T15:46:23;26.10;99.90
13229;DHT22;6680;53.220;10.402;2023-08-20T15:48:49;26.20;99.90
13229;DHT22;6680;53.220;10.402;2023-08-20T15:51:16;26.40;99.90
13229;DHT22;6680;53.220;10.402;2023-08-20T15:53:44;26.30;99.90
13229;DHT22;6680;53.220;10.402;2023-08-20T15:56:10;26.30;99.90
13229;DHT22;6680;53.220;10.402;2023-08-20T15:58:38;26.40;99.90
13229;DHT22;6680;53.220;10.402;2023-08-20T16:01:05;26.50;99.90